Time;durP1;ratioP1;P1;durP2;ratioP2;P2;SDS_P1;SDS_P2;PMS_P1;PMS_P2;Temp;Humidity;BMP_temperature;BMP_pressure;BME280_temperature;BME280_humidity;BME280_pressure;Samples;Min_cycle;Max_cycle;Signal;HPM_P1;HPM_P2
2023/08/07 00:01:32;;;;;;;11.43;4.38;;;;;;;;;;5062256;28;20052;-75
2023/08/07 00:04:04;;;;;;;11.07;5.38;;;;;;;;;;5063025;28;20052;-75
2023/08/07 00:06:36;;;;;;;10.68;5.97;;;;;;;;;;5062039;28;20055;-75
2023/08/07 00:09:07;;;;;;;25.85;13.35;;;;;;;;;;5061686;28;20052;-75
2023/08/07 00:11:37;;;;;;;18.15;7.90;;;;;;;;;;5062362;28;20044;-75
2023/08/07 00:14:07;;;;;;;16.13;6.47;;;;;;;;;;5061478;28;20083;-75
2023/08/07 00:16:38;;;;;;;15.55;7.75;;;;;;;;;;5061652;28;20064;-75
2023/08/07 00:19:09;;;;;;;45.65;22.90;;;;;;;;;;5062036;28;20374;-75
2023/08/07 00:21:39;;;;;;;23.48;9.75;;;;;;;;;;5061879;28;20430;-74
2023/08/07 00:24:11;;;;;;;15.73;6.72;;;;;;;;;;5061956;28;20052;-74
2023/08/07 00:26:41;;;;;;;13.68;5.80;;;;;;;;;;5060535;28;20048;-75
2023/08/07 00:29:13;;;;;;;16.35;6.72;;;;;;;;;;5044704;28;20059;-74
2023/08/07 00:31:43;;;;;;;11.07;4.70;;;;;;;;;;5060449;28;20048;-74
2023/08/07 00:34:15;;;;;;;13.95;7.80;;;;;;;;;;5061390;28;20098;-74
2023/08/07 00:36:45;;;;;;;17.95;9.18;;;;;;;;;;5062038;28;20052;-73
2023/08/07 00:39:16;;;;;;;13.35;7.22;;;;;;;;;;5044127;28;20138;-74
2023/08/07 00:41:47;;;;;;;11.50;4.85;;;;;;;;;;5060036;28;20499;-74
2023/08/07 00:44:18;;;;;;;11.27;4.82;;;;;;;;;;5061929;28;20053;-75
2023/08/07 00:46:48;;;;;;;10.85;5.80;;;;;;;;;;5061294;28;20427;-74
2023/08/07 00:49:21;;;;;;;18.33;7.00;;;;;;;;;;5063171;28;20044;-74
2023/08/07 00:51:52;;;;;;;19.27;7.13;;;;;;;;;;5063719;28;20048;-74
2023/08/07 00:54:24;;;;;;;12.45;5.75;;;;;;;;;;5061788;28;20059;-74
2023/08/07 00:56:54;;;;;;;12.77;4.20;;;;;;;;;;5060063;28;20048;-75
2023/08/07 00:59:26;;;;;;;10.15;4.28;;;;;;;;;;5061855;28;20049;-74
2023/08/07 01:01:56;;;;;;;11.85;3.85;;;;;;;;;;5059754;28;20048;-74
2023/08/07 01:04:27;;;;;;;29.30;12.07;;;;;;;;;;5061250;28;20040;-73
2023/08/07 01:06:57;;;;;;;24.95;11.77;;;;;;;;;;5061068;28;20052;-74
2023/08/07 01:09:28;;;;;;;28.75;15.65;;;;;;;;;;5060303;28;20398;-75
2023/08/07 01:12:16;;;;;;;14.30;8.35;;;;;;;;;;5061008;28;20048;-74
2023/08/07 01:15:07;;;;;;;23.90;12.80;;;;;;;;;;5061611;28;20044;-74
2023/08/07 01:17:38;;;;;;;17.75;8.98;;;;;;;;;;5060863;28;20511;-74
2023/08/07 01:20:10;;;;;;;15.32;6.18;;;;;;;;;;5060732;28;20825;-74
2023/08/07 01:22:40;;;;;;;11.65;5.22;;;;;;;;;;5062393;28;20636;-75
2023/08/07 01:25:10;;;;;;;13.30;4.53;;;;;;;;;;5059156;28;20079;-77
2023/08/07 01:27:45;;;;;;;9.63;4.07;;;;;;;;;;5060299;28;20048;-74
2023/08/07 01:30:36;;;;;;;15.23;4.78;;;;;;;;;;5061267;28;20044;-75
2023/08/07 01:33:12;;;;;;;14.48;4.45;;;;;;;;;;5058657;28;20924;-73
2023/08/07 01:35:49;;;;;;;14.85;4.68;;;;;;;;;;5059090;28;20044;-75
2023/08/07 01:38:24;;;;;;;10.95;4.32;;;;;;;;;;5059617;28;20427;-74
2023/08/07 01:40:58;;;;;;;8.13;4.20;;;;;;;;;;5059540;28;20063;-74
2023/08/07 01:43:29;;;;;;;8.65;4.22;;;;;;;;;;5060656;28;20048;-74
2023/08/07 01:46:02;;;;;;;10.07;4.28;;;;;;;;;;5060957;28;20053;-76
2023/08/07 01:48:33;;;;;;;9.57;4.78;;;;;;;;;;5059540;28;20052;-74
2023/08/07 01:51:04;;;;;;;11.90;4.20;;;;;;;;;;5061711;28;20513;-74
2023/08/07 01:53:35;;;;;;;9.50;4.00;;;;;;;;;;5060296;28;20054;-74
2023/08/07 01:56:06;;;;;;;11.65;4.38;;;;;;;;;;5060595;28;20059;-75
2023/08/07 01:58:39;;;;;;;7.45;3.85;;;;;;;;;;5061405;28;20049;-74
2023/08/07 02:01:11;;;;;;;12.57;4.47;;;;;;;;;;5061084;28;20059;-75
2023/08/07 02:03:41;;;;;;;8.85;4.07;;;;;;;;;;5058620;28;20063;-75
2023/08/07 02:06:14;;;;;;;12.30;4.05;;;;;;;;;;5059210;28;20052;-74
2023/08/07 02:08:44;;;;;;;8.70;3.78;;;;;;;;;;5058997;28;20423;-74
2023/08/07 02:11:15;;;;;;;10.02;4.47;;;;;;;;;;5061445;28;20067;-74
2023/08/07 02:13:46;;;;;;;9.10;3.80;;;;;;;;;;5059249;28;20067;-74
2023/08/07 02:16:16;;;;;;;13.05;4.60;;;;;;;;;;5059137;28;20040;-74
2023/08/07 02:18:47;;;;;;;7.95;4.22;;;;;;;;;;5061987;28;20048;-74
2023/08/07 02:21:17;;;;;;;7.40;4.70;;;;;;;;;;5058566;28;20610;-74
2023/08/07 02:23:48;;;;;;;9.70;4.07;;;;;;;;;;5061350;28;20052;-75
2023/08/07 02:26:18;;;;;;;8.30;3.75;;;;;;;;;;5060000;28;20057;-75
2023/08/07 02:28:48;;;;;;;9.75;4.03;;;;;;;;;;5059334;28;20072;-75
2023/08/07 02:31:19;;;;;;;9.13;4.03;;;;;;;;;;5059314;28;20056;-75
2023/08/07 02:33:51;;;;;;;14.70;4.03;;;;;;;;;;5059592;28;20045;-74
2023/08/07 02:36:21;;;;;;;9.52;3.85;;;;;;;;;;5058595;28;20059;-73
2023/08/07 02:38:52;;;;;;;5.72;3.78;;;;;;;;;;5059690;28;20052;-74
2023/08/07 02:41:22;;;;;;;7.97;3.65;;;;;;;;;;5062681;28;20056;-74
2023/08/07 02:43:53;;;;;;;10.60;3.80;;;;;;;;;;5062922;28;20054;-74
2023/08/07 02:46:24;;;;;;;6.70;3.72;;;;;;;;;;5063541;28;20585;-74
2023/08/07 02:48:55;;;;;;;4.97;3.30;;;;;;;;;;5062289;28;20168;-74
2023/08/07 02:51:25;;;;;;;8.38;3.63;;;;;;;;;;5062667;28;20045;-74
2023/08/07 02:53:56;;;;;;;7.30;3.42;;;;;;;;;;5046523;28;20071;-74
2023/08/07 02:56:28;;;;;;;10.13;4.55;;;;;;;;;;5062269;28;20495;-74
2023/08/07 02:58:59;;;;;;;8.80;3.85;;;;;;;;;;5061801;28;20060;-74
2023/08/07 03:01:29;;;;;;;8.95;4.03;;;;;;;;;;5063726;28;20055;-75
2023/08/07 03:04:00;;;;;;;7.38;3.33;;;;;;;;;;5064390;28;20052;-75
2023/08/07 03:06:30;;;;;;;6.97;3.42;;;;;;;;;;5063930;28;20495;-74
2023/08/07 03:09:01;;;;;;;10.45;3.78;;;;;;;;;;5061990;28;20052;-74
2023/08/07 03:11:31;;;;;;;8.30;4.00;;;;;;;;;;5062380;28;20048;-75
2023/08/07 03:14:03;;;;;;;6.68;4.15;;;;;;;;;;5062153;28;20060;-75
2023/08/07 03:16:34;;;;;;;7.15;3.90;;;;;;;;;;5063487;28;20049;-75
2023/08/07 03:19:04;;;;;;;10.35;3.75;;;;;;;;;;5063235;28;20045;-75
2023/08/07 03:21:35;;;;;;;5.75;3.72;;;;;;;;;;5063512;28;20053;-75
2023/08/07 03:24:05;;;;;;;8.65;3.75;;;;;;;;;;5062390;28;20053;-75
2023/08/07 03:26:40;;;;;;;7.70;3.55;;;;;;;;;;5063514;28;20056;-75
2023/08/07 03:29:12;;;;;;;6.88;3.55;;;;;;;;;;5062227;28;20515;-75
2023/08/07 03:31:44;;;;;;;5.85;3.40;;;;;;;;;;5060505;28;20068;-77
2023/08/07 03:34:15;;;;;;;5.07;3.15;;;;;;;;;;5062031;28;20051;-75
2023/08/07 03:36:47;;;;;;;5.57;3.65;;;;;;;;;;5061430;28;20590;-75
2023/08/07 03:39:18;;;;;;;7.68;3.28;;;;;;;;;;5063534;28;20483;-75
2023/08/07 03:41:49;;;;;;;5.45;3.08;;;;;;;;;;5061623;28;20052;-74
2023/08/07 03:44:19;;;;;;;9.65;3.92;;;;;;;;;;5061703;28;20049;-75
2023/08/07 03:46:51;;;;;;;5.72;3.38;;;;;;;;;;5061682;28;20055;-75
2023/08/07 03:49:25;;;;;;;7.03;3.50;;;;;;;;;;5062763;28;20071;-75
2023/08/07 03:51:56;;;;;;;6.13;3.60;;;;;;;;;;5060922;28;20059;-75
2023/08/07 03:54:26;;;;;;;11.52;3.80;;;;;;;;;;5060782;28;20057;-75
2023/08/07 03:56:57;;;;;;;5.05;3.40;;;;;;;;;;5062917;28;20048;-72
2023/08/07 03:59:28;;;;;;;7.55;3.85;;;;;;;;;;5061357;28;20056;-74
2023/08/07 04:01:58;;;;;;;12.90;3.97;;;;;;;;;;5061148;28;20109;-75
2023/08/07 04:04:29;;;;;;;12.27;3.65;;;;;;;;;;5062999;28;20048;-75
2023/08/07 04:06:59;;;;;;;5.60;3.28;;;;;;;;;;5061805;28;20747;-73
2023/08/07 04:09:31;;;;;;;4.97;3.40;;;;;;;;;;5060986;28;20079;-73
2023/08/07 04:12:03;;;;;;;6.95;3.65;;;;;;;;;;5062175;28;20059;-74
2023/08/07 04:14:34;;;;;;;6.13;3.13;;;;;;;;;;5062781;28;20049;-73
2023/08/07 04:17:05;;;;;;;9.70;3.50;;;;;;;;;;5060736;28;20045;-74
2023/08/07 04:19:36;;;;;;;9.35;3.70;;;;;;;;;;5062536;28;20096;-73
2023/08/07 04:22:06;;;;;;;5.05;3.10;;;;;;;;;;5062154;28;20067;-74
2023/08/07 04:24:36;;;;;;;6.40;3.10;;;;;;;;;;5061202;28;20419;-74
2023/08/07 04:27:08;;;;;;;10.15;3.70;;;;;;;;;;5061079;28;20426;-74
2023/08/07 04:29:38;;;;;;;8.00;3.80;;;;;;;;;;5062684;28;20501;-74
2023/08/07 04:32:09;;;;;;;7.50;3.35;;;;;;;;;;5062181;28;20060;-74
2023/08/07 04:34:40;;;;;;;9.55;3.42;;;;;;;;;;5062101;28;20407;-74
2023/08/07 04:37:10;;;;;;;8.27;3.83;;;;;;;;;;5060712;28;20537;-74
2023/08/07 04:39:41;;;;;;;5.18;3.50;;;;;;;;;;5061921;28;20396;-75
2023/08/07 04:42:11;;;;;;;8.57;3.85;;;;;;;;;;5062072;28;20052;-74
2023/08/07 04:44:42;;;;;;;8.57;3.63;;;;;;;;;;5060263;28;20788;-74
2023/08/07 04:47:12;;;;;;;6.75;3.78;;;;;;;;;;5061877;28;20052;-74
2023/08/07 04:49:43;;;;;;;7.53;3.50;;;;;;;;;;5061559;28;20391;-74
2023/08/07 04:52:15;;;;;;;13.13;3.70;;;;;;;;;;5061931;28;20519;-74
2023/08/07 04:54:54;;;;;;;8.43;3.42;;;;;;;;;;5061622;28;20036;-75
2023/08/07 04:57:25;;;;;;;7.13;3.10;;;;;;;;;;5061305;28;20044;-74
2023/08/07 04:59:55;;;;;;;8.15;3.40;;;;;;;;;;5061755;28;20506;-74
2023/08/07 05:02:25;;;;;;;7.15;3.15;;;;;;;;;;5060936;28;20048;-75
2023/08/07 05:04:57;;;;;;;9.90;3.20;;;;;;;;;;5061854;28;20052;-74
2023/08/07 05:07:27;;;;;;;8.80;3.80;;;;;;;;;;5062055;28;20052;-74
2023/08/07 05:09:59;;;;;;;6.60;3.47;;;;;;;;;;5061960;28;20049;-74
2023/08/07 05:12:30;;;;;;;5.82;3.42;;;;;;;;;;5061921;28;20047;-75
2023/08/07 05:15:00;;;;;;;4.88;2.97;;;;;;;;;;5060510;28;20052;-75
2023/08/07 05:17:32;;;;;;;7.60;3.25;;;;;;;;;;5061369;28;20056;-75
2023/08/07 05:20:04;;;;;;;6.75;2.90;;;;;;;;;;5060924;28;20051;-74
2023/08/07 05:22:35;;;;;;;6.45;3.28;;;;;;;;;;5060706;28;20419;-75
2023/08/07 05:25:06;;;;;;;9.40;3.60;;;;;;;;;;5061023;28;20036;-74
2023/08/07 05:27:37;;;;;;;4.90;3.00;;;;;;;;;;5060904;28;20036;-74
2023/08/07 05:30:08;;;;;;;5.25;3.28;;;;;;;;;;5060991;28;20056;-74
2023/08/07 05:32:38;;;;;;;4.97;3.05;;;;;;;;;;5061034;28;20059;-74
2023/08/07 05:35:11;;;;;;;6.60;3.42;;;;;;;;;;5060845;28;20048;-75
2023/08/07 05:37:41;;;;;;;6.72;3.42;;;;;;;;;;5061721;28;20052;-75
2023/08/07 05:40:12;;;;;;;7.28;3.20;;;;;;;;;;5060384;28;20052;-74
2023/08/07 05:42:42;;;;;;;9.27;3.65;;;;;;;;;;5062842;28;20040;-74
2023/08/07 05:45:12;;;;;;;4.97;3.22;;;;;;;;;;5059836;28;20499;-74
2023/08/07 05:47:43;;;;;;;11.93;3.33;;;;;;;;;;5061083;28;20423;-75
2023/08/07 05:50:13;;;;;;;4.80;3.00;;;;;;;;;;5061358;28;20484;-73
2023/08/07 05:52:44;;;;;;;9.73;3.33;;;;;;;;;;5061581;28;20407;-73
2023/08/07 05:55:15;;;;;;;10.85;3.30;;;;;;;;;;5061507;28;20048;-73
2023/08/07 05:57:45;;;;;;;10.18;3.10;;;;;;;;;;5060318;28;20490;-73
2023/08/07 06:00:18;;;;;;;6.05;3.30;;;;;;;;;;5061230;28;20053;-73
2023/08/07 06:02:49;;;;;;;6.57;3.55;;;;;;;;;;5061794;28;20036;-73
2023/08/07 06:05:20;;;;;;;6.75;3.75;;;;;;;;;;5061596;28;20106;-73
2023/08/07 06:07:51;;;;;;;7.07;3.30;;;;;;;;;;5060862;28;20040;-73
2023/08/07 06:10:22;;;;;;;6.18;3.40;;;;;;;;;;5061101;28;20444;-73
2023/08/07 06:12:54;;;;;;;6.72;3.97;;;;;;;;;;5061258;28;20047;-75
2023/08/07 06:15:25;;;;;;;6.50;3.38;;;;;;;;;;5065209;28;20533;-74
2023/08/07 06:17:56;;;;;;;10.73;3.42;;;;;;;;;;5064796;28;20044;-74
2023/08/07 06:20:30;;;;;;;7.35;3.60;;;;;;;;;;5065370;28;20055;-74
2023/08/07 06:23:00;;;;;;;7.05;3.53;;;;;;;;;;5065303;28;20328;-74
2023/08/07 06:25:33;;;;;;;6.82;3.45;;;;;;;;;;5065166;28;20683;-74
2023/08/07 06:28:04;;;;;;;6.85;2.95;;;;;;;;;;5065186;28;20033;-74
2023/08/07 06:30:34;;;;;;;15.50;4.15;;;;;;;;;;5065299;28;20044;-73
2023/08/07 06:33:05;;;;;;;6.65;3.40;;;;;;;;;;5064113;28;20044;-74
2023/08/07 06:35:39;;;;;;;6.00;3.20;;;;;;;;;;5064492;28;20052;-74
2023/08/07 06:38:10;;;;;;;4.80;3.25;;;;;;;;;;5064396;28;20407;-74
2023/08/07 06:40:41;;;;;;;7.90;3.13;;;;;;;;;;5064258;28;20059;-74
2023/08/07 06:43:12;;;;;;;9.73;3.17;;;;;;;;;;5064524;28;20120;-74
2023/08/07 06:45:42;;;;;;;5.10;3.20;;;;;;;;;;5063719;28;20051;-74
2023/08/07 06:48:12;;;;;;;7.03;3.38;;;;;;;;;;5064564;28;20036;-74
2023/08/07 06:50:43;;;;;;;5.60;3.35;;;;;;;;;;5064598;28;20400;-73
2023/08/07 06:53:16;;;;;;;10.30;3.40;;;;;;;;;;5064441;28;20079;-74
2023/08/07 06:55:46;;;;;;;5.72;3.03;;;;;;;;;;5063591;28;20045;-73
2023/08/07 06:58:16;;;;;;;13.77;3.22;;;;;;;;;;5063352;28;20045;-74
2023/08/07 07:00:47;;;;;;;5.05;2.92;;;;;;;;;;5065163;28;20052;-74
2023/08/07 07:03:17;;;;;;;8.60;3.90;;;;;;;;;;5064529;28;20399;-74
2023/08/07 07:05:50;;;;;;;8.10;3.30;;;;;;;;;;5064487;28;20404;-74
2023/08/07 07:08:21;;;;;;;6.72;3.15;;;;;;;;;;5064040;28;20071;-74
2023/08/07 07:10:50;;;;;;;9.77;3.22;;;;;;;;;;5064991;28;20048;-74
2023/08/07 07:13:21;;;;;;;8.82;3.47;;;;;;;;;;5064220;28;20055;-74
2023/08/07 07:15:55;;;;;;;7.20;3.60;;;;;;;;;;5063851;28;20055;-74
2023/08/07 07:18:26;;;;;;;8.40;3.20;;;;;;;;;;5063724;28;20040;-73
2023/08/07 07:21:00;;;;;;;8.32;3.80;;;;;;;;;;5063696;28;20059;-73
2023/08/07 07:23:31;;;;;;;8.63;3.70;;;;;;;;;;5063682;28;20354;-74
2023/08/07 07:26:03;;;;;;;10.13;3.40;;;;;;;;;;5062859;28;20534;-74
2023/08/07 07:28:33;;;;;;;6.40;3.40;;;;;;;;;;5063962;28;20503;-73
2023/08/07 07:31:04;;;;;;;6.47;3.10;;;;;;;;;;5064505;28;20044;-74
2023/08/07 07:33:36;;;;;;;5.80;3.30;;;;;;;;;;5063471;28;20511;-73
2023/08/07 07:36:17;;;;;;;6.95;3.45;;;;;;;;;;5063641;28;20056;-74
2023/08/07 07:38:49;;;;;;;8.35;3.83;;;;;;;;;;5047432;28;20048;-73
2023/08/07 07:41:20;;;;;;;8.63;3.42;;;;;;;;;;5063328;28;20435;-74
2023/08/07 07:43:50;;;;;;;9.85;3.50;;;;;;;;;;5063389;28;20044;-74
2023/08/07 07:46:27;;;;;;;6.05;3.42;;;;;;;;;;5062756;28;20044;-74
2023/08/07 07:48:57;;;;;;;9.15;3.72;;;;;;;;;;5064022;28;20418;-73
2023/08/07 07:51:29;;;;;;;9.27;4.18;;;;;;;;;;5063308;28;20407;-74
2023/08/07 07:54:00;;;;;;;7.05;3.30;;;;;;;;;;5063713;28;20060;-73
2023/08/07 07:56:44;;;;;;;6.28;3.47;;;;;;;;;;5063158;28;20397;-74
2023/08/07 07:59:14;;;;;;;8.15;3.45;;;;;;;;;;5063554;28;20059;-74
2023/08/07 08:01:44;;;;;;;6.93;3.55;;;;;;;;;;5061597;28;20048;-75
2023/08/07 08:04:15;;;;;;;9.73;3.75;;;;;;;;;;5062976;28;20049;-75
2023/08/07 08:06:48;;;;;;;8.02;3.70;;;;;;;;;;5062843;28;20044;-75
2023/08/07 08:09:19;;;;;;;4.78;3.90;;;;;;;;;;5062991;28;20064;-75
2023/08/07 08:11:49;;;;;;;9.50;3.75;;;;;;;;;;5062677;28;20052;-75
2023/08/07 08:14:19;;;;;;;11.18;4.07;;;;;;;;;;5062800;28;20048;-75
2023/08/07 08:16:50;;;;;;;6.25;3.50;;;;;;;;;;5062723;28;20063;-75
2023/08/07 08:19:21;;;;;;;10.82;3.30;;;;;;;;;;5062540;28;20051;-75
2023/08/07 08:21:51;;;;;;;6.47;3.50;;;;;;;;;;5061936;28;20044;-76
2023/08/07 08:24:22;;;;;;;8.70;3.85;;;;;;;;;;5062786;28;20040;-75
2023/08/07 08:26:52;;;;;;;7.25;3.92;;;;;;;;;;5062007;28;20052;-75
2023/08/07 08:29:24;;;;;;;7.13;3.95;;;;;;;;;;5063710;28;20056;-75
2023/08/07 08:31:56;;;;;;;6.63;3.72;;;;;;;;;;5061643;28;20052;-75
2023/08/07 08:34:28;;;;;;;11.05;3.67;;;;;;;;;;5062321;28;20053;-75
2023/08/07 08:36:58;;;;;;;11.85;4.03;;;;;;;;;;5062022;28;20060;-75
2023/08/07 08:39:28;;;;;;;7.03;4.13;;;;;;;;;;5062694;28;20036;-74
2023/08/07 08:42:00;;;;;;;9.63;4.07;;;;;;;;;;5061807;28;20522;-75
2023/08/07 08:44:37;;;;;;;5.72;4.00;;;;;;;;;;5061537;28;20048;-74
2023/08/07 08:47:09;;;;;;;6.18;4.00;;;;;;;;;;5062200;28;20053;-75
2023/08/07 08:49:48;;;;;;;7.60;3.70;;;;;;;;;;5062217;28;20052;-74
2023/08/07 08:52:19;;;;;;;10.60;4.07;;;;;;;;;;5062803;28;20049;-75
2023/08/07 08:54:50;;;;;;;8.02;3.88;;;;;;;;;;5060337;28;20601;-74
2023/08/07 08:57:21;;;;;;;9.55;4.07;;;;;;;;;;5061913;28;20045;-74
2023/08/07 08:59:53;;;;;;;10.07;4.50;;;;;;;;;;5062084;28;20554;-74
2023/08/07 09:02:24;;;;;;;8.18;4.35;;;;;;;;;;5062028;28;20055;-74
2023/08/07 09:04:54;;;;;;;10.32;4.07;;;;;;;;;;5062459;28;20048;-74
2023/08/07 09:07:26;;;;;;;9.95;4.05;;;;;;;;;;5061928;28;20048;-74
2023/08/07 09:09:58;;;;;;;7.03;3.85;;;;;;;;;;5062228;28;20590;-74
2023/08/07 09:12:31;;;;;;;7.07;3.78;;;;;;;;;;5061779;28;20063;-74
2023/08/07 09:15:04;;;;;;;8.35;4.10;;;;;;;;;;5061417;28;20052;-74
2023/08/07 09:17:40;;;;;;;14.30;3.92;;;;;;;;;;5062012;28;20059;-74
2023/08/07 09:20:13;;;;;;;6.63;3.65;;;;;;;;;;5061858;28;20403;-74
2023/08/07 09:22:44;;;;;;;12.70;3.97;;;;;;;;;;5061978;28;20052;-74
2023/08/07 09:25:15;;;;;;;13.35;4.10;;;;;;;;;;5061367;28;20048;-74
2023/08/07 09:27:45;;;;;;;13.40;4.13;;;;;;;;;;5061671;28;20522;-73
2023/08/07 09:30:17;;;;;;;11.05;3.90;;;;;;;;;;5061714;28;20052;-73
2023/08/07 09:32:51;;;;;;;11.90;3.83;;;;;;;;;;5060353;28;20546;-74
2023/08/07 09:35:23;;;;;;;8.43;4.03;;;;;;;;;;5061950;28;20051;-75
2023/08/07 09:37:53;;;;;;;14.85;4.32;;;;;;;;;;5061904;28;20785;-74
2023/08/07 09:40:23;;;;;;;8.45;4.22;;;;;;;;;;5060456;28;20049;-76
2023/08/07 09:42:55;;;;;;;10.05;3.90;;;;;;;;;;5061696;28;20037;-75
2023/08/07 09:45:27;;;;;;;6.28;3.83;;;;;;;;;;5060604;28;20060;-75
2023/08/07 09:48:06;;;;;;;8.23;4.45;;;;;;;;;;5061666;28;20051;-79
2023/08/07 09:50:37;;;;;;;9.82;4.43;;;;;;;;;;5061981;28;20498;-77
2023/08/07 09:53:10;;;;;;;8.00;4.45;;;;;;;;;;5061274;28;20403;-79
2023/08/07 09:55:41;;;;;;;7.05;4.47;;;;;;;;;;5061470;28;20056;-75
2023/08/07 09:58:13;;;;;;;9.55;4.35;;;;;;;;;;5061131;28;20044;-75
2023/08/07 10:00:53;;;;;;;8.50;4.80;;;;;;;;;;5061040;28;20041;-76
2023/08/07 10:03:25;;;;;;;5.57;3.60;;;;;;;;;;5060435;28;20495;-80
2023/08/07 10:05:57;;;;;;;5.93;4.40;;;;;;;;;;5060918;28;20503;-76
2023/08/07 10:08:28;;;;;;;9.88;4.53;;;;;;;;;;5061102;28;20056;-75
2023/08/07 10:11:01;;;;;;;13.63;4.57;;;;;;;;;;5060983;28;20055;-75
2023/08/07 10:13:32;;;;;;;9.45;4.40;;;;;;;;;;5061364;28;20052;-75
2023/08/07 10:16:08;;;;;;;10.85;4.70;;;;;;;;;;5058758;28;20056;-76
2023/08/07 10:18:38;;;;;;;10.65;4.35;;;;;;;;;;5060948;28;20045;-76
2023/08/07 10:21:10;;;;;;;7.45;4.20;;;;;;;;;;5061229;28;20048;-75
2023/08/07 10:23:43;;;;;;;8.00;4.63;;;;;;;;;;5062822;28;20052;-74
2023/08/07 10:26:14;;;;;;;10.82;5.20;;;;;;;;;;5060591;28;20049;-79
2023/08/07 10:28:46;;;;;;;11.27;4.80;;;;;;;;;;5062713;28;20048;-79
2023/08/07 10:31:17;;;;;;;10.35;4.47;;;;;;;;;;5059546;28;20056;-75
2023/08/07 10:33:48;;;;;;;9.75;5.05;;;;;;;;;;5061130;28;20056;-75
2023/08/07 10:36:19;;;;;;;13.00;5.00;;;;;;;;;;5059159;28;20049;-75
2023/08/07 10:39:07;;;;;;;10.55;5.25;;;;;;;;;;5059251;28;20049;-76
2023/08/07 10:41:45;;;;;;;6.78;4.88;;;;;;;;;;5058981;28;20401;-76
2023/08/07 10:44:21;;;;;;;7.65;4.15;;;;;;;;;;5061364;28;20361;-76
2023/08/07 10:46:55;;;;;;;;;;;;;;;;;;5059656;28;20067;-76
2023/08/07 10:49:41;;;;;;;9.30;4.60;;;;;;;;;;5060768;28;19932;-79
2023/08/07 10:52:15;;;;;;;12.45;4.00;;;;;;;;;;5061238;28;20056;-76
2023/08/07 10:54:48;;;;;;;7.60;4.50;;;;;;;;;;5061025;28;20051;-74
2023/08/07 10:57:19;;;;;;;10.68;4.38;;;;;;;;;;5061452;28;20578;-76
2023/08/07 11:00:04;;;;;;;6.45;4.57;;;;;;;;;;5061455;28;20037;-75
2023/08/07 11:02:43;;;;;;;8.82;4.85;;;;;;;;;;5064907;28;20051;-75
2023/08/07 11:05:15;;;;;;;9.55;5.32;;;;;;;;;;5064914;28;20506;-75
2023/08/07 11:07:46;;;;;;;8.43;5.07;;;;;;;;;;5065086;28;20044;-77
2023/08/07 11:10:16;;;;;;;14.00;5.13;;;;;;;;;;5063872;28;20040;-75
2023/08/07 11:12:49;;;;;;;8.40;4.78;;;;;;;;;;5064670;28;20068;-76
2023/08/07 11:15:21;;;;;;;12.00;5.55;;;;;;;;;;5063271;28;20071;-76
2023/08/07 11:17:53;;;;;;;11.93;5.43;;;;;;;;;;5064009;28;20048;-74
2023/08/07 11:20:23;;;;;;;13.25;5.70;;;;;;;;;;5064075;28;20057;-76
2023/08/07 11:22:55;;;;;;;9.75;6.38;;;;;;;;;;5063837;28;20048;-76
2023/08/07 11:25:27;;;;;;;11.93;6.18;;;;;;;;;;5064492;28;20052;-74
2023/08/07 11:27:59;;;;;;;16.73;7.03;;;;;;;;;;5063943;28;20044;-73
2023/08/07 11:30:31;;;;;;;10.82;6.53;;;;;;;;;;5064036;28;20044;-74
2023/08/07 11:33:01;;;;;;;17.15;7.25;;;;;;;;;;5064558;28;20074;-74
2023/08/07 11:35:31;;;;;;;17.80;6.63;;;;;;;;;;5065156;28;20044;-73
2023/08/07 11:38:03;;;;;;;14.38;5.80;;;;;;;;;;5064569;28;21084;-75
2023/08/07 11:40:34;;;;;;;20.63;6.88;;;;;;;;;;5063266;28;20521;-76
2023/08/07 11:43:04;;;;;;;16.13;6.00;;;;;;;;;;5064270;28;20051;-74
2023/08/07 11:45:35;;;;;;;12.15;6.13;;;;;;;;;;5064501;28;20044;-75
2023/08/07 11:48:07;;;;;;;16.42;5.97;;;;;;;;;;5064375;28;20048;-74
2023/08/07 11:50:39;;;;;;;9.73;5.38;;;;;;;;;;5063819;28;20056;-73
2023/08/07 11:53:09;;;;;;;14.68;5.07;;;;;;;;;;5064260;28;20059;-74
2023/08/07 11:55:48;;;;;;;14.45;4.90;;;;;;;;;;5063792;28;20055;-75
2023/08/07 11:58:22;;;;;;;13.45;4.72;;;;;;;;;;5063079;28;20036;-74
2023/08/07 12:00:53;;;;;;;14.07;4.75;;;;;;;;;;5063657;28;20220;-75
2023/08/07 12:03:28;;;;;;;11.77;4.90;;;;;;;;;;5061907;28;20075;-75
2023/08/07 12:06:02;;;;;;;14.38;4.10;;;;;;;;;;5064391;28;20040;-75
2023/08/07 12:08:42;;;;;;;11.30;3.83;;;;;;;;;;5063966;28;20056;-75
2023/08/07 12:11:13;;;;;;;10.13;3.80;;;;;;;;;;5063307;28;20056;-75
2023/08/07 12:13:45;;;;;;;10.82;3.45;;;;;;;;;;5062256;28;20079;-74
2023/08/07 12:16:17;;;;;;;14.15;3.65;;;;;;;;;;5063861;28;20403;-73
2023/08/07 12:18:50;;;;;;;10.18;3.13;;;;;;;;;;5063572;28;20386;-75
2023/08/07 12:21:24;;;;;;;8.30;2.92;;;;;;;;;;5062615;28;20423;-74
2023/08/07 12:23:57;;;;;;;8.82;2.40;;;;;;;;;;5062824;28;20895;-76
2023/08/07 12:26:29;;;;;;;8.10;2.50;;;;;;;;;;5063516;28;20041;-74
2023/08/07 12:29:00;;;;;;;14.30;2.80;;;;;;;;;;5062488;28;20047;-75
2023/08/07 12:31:30;;;;;;;11.02;2.85;;;;;;;;;;5062894;28;20037;-75
2023/08/07 12:34:00;;;;;;;7.50;2.58;;;;;;;;;;5062580;28;20496;-73
2023/08/07 12:36:34;;;;;;;9.57;2.30;;;;;;;;;;5061778;28;20064;-74
2023/08/07 12:39:06;;;;;;;9.02;2.08;;;;;;;;;;5062755;28;20056;-74
2023/08/07 12:41:37;;;;;;;8.85;2.50;;;;;;;;;;5062388;28;20052;-74
2023/08/07 12:44:12;;;;;;;13.70;2.22;;;;;;;;;;5062071;28;20048;-73
2023/08/07 12:46:42;;;;;;;9.50;2.85;;;;;;;;;;5060783;28;20408;-73
2023/08/07 12:49:13;;;;;;;9.25;2.20;;;;;;;;;;5060808;28;20051;-74
2023/08/07 12:51:44;;;;;;;7.35;2.20;;;;;;;;;;5062657;28;20052;-73
2023/08/07 12:54:15;;;;;;;7.28;1.90;;;;;;;;;;5062274;28;20045;-76
2023/08/07 12:56:45;;;;;;;6.05;1.67;;;;;;;;;;5062945;28;20055;-74
2023/08/07 12:59:16;;;;;;;12.80;3.67;;;;;;;;;;5062220;28;20048;-74
2023/08/07 13:01:46;;;;;;;7.47;2.30;;;;;;;;;;5062051;28;20514;-74
2023/08/07 13:04:18;;;;;;;10.25;2.00;;;;;;;;;;5060304;28;20534;-75
2023/08/07 13:06:49;;;;;;;8.85;3.58;;;;;;;;;;5062251;28;20487;-74
2023/08/07 13:09:20;;;;;;;12.63;2.58;;;;;;;;;;5061680;28;20775;-74
2023/08/07 13:11:51;;;;;;;6.38;2.00;;;;;;;;;;5061891;28;20040;-74
2023/08/07 13:14:22;;;;;;;5.80;2.47;;;;;;;;;;5061789;28;20054;-74
2023/08/07 13:16:52;;;;;;;8.60;2.88;;;;;;;;;;5061938;28;20435;-74
2023/08/07 13:19:23;;;;;;;8.85;1.80;;;;;;;;;;5062012;28;20405;-74
2023/08/07 13:21:53;;;;;;;6.55;1.95;;;;;;;;;;5062033;28;20064;-73
2023/08/07 13:24:24;;;;;;;8.32;1.92;;;;;;;;;;5061122;28;20048;-74
2023/08/07 13:26:54;;;;;;;8.32;2.10;;;;;;;;;;5060430;28;20067;-75
2023/08/07 13:29:29;;;;;;;8.75;2.15;;;;;;;;;;5061513;28;20535;-74
2023/08/07 13:32:03;;;;;;;5.88;2.00;;;;;;;;;;5059583;28;20063;-74
2023/08/07 13:34:33;;;;;;;4.32;1.88;;;;;;;;;;5062667;28;20052;-75
2023/08/07 13:37:09;;;;;;;9.07;2.63;;;;;;;;;;5062937;28;20053;-74
2023/08/07 13:39:39;;;;;;;8.88;2.42;;;;;;;;;;5061362;28;20482;-73
2023/08/07 13:42:10;;;;;;;9.85;2.30;;;;;;;;;;5059429;28;20048;-74
2023/08/07 13:44:41;;;;;;;5.70;2.00;;;;;;;;;;5061280;28;20047;-73
2023/08/07 13:47:11;;;;;;;9.35;2.28;;;;;;;;;;5062078;28;20071;-73
2023/08/07 13:49:42;;;;;;;7.93;2.55;;;;;;;;;;5061225;28;20048;-77
2023/08/07 13:52:13;;;;;;;14.30;2.85;;;;;;;;;;5061420;28;20507;-73
2023/08/07 13:54:45;;;;;;;7.75;2.75;;;;;;;;;;5061440;28;20053;-74
2023/08/07 13:57:16;;;;;;;13.32;2.72;;;;;;;;;;5060948;28;20063;-75
2023/08/07 13:59:47;;;;;;;13.52;3.63;;;;;;;;;;5062041;28;20059;-76
2023/08/07 14:02:20;;;;;;;11.30;2.42;;;;;;;;;;5061894;28;20037;-77
2023/08/07 14:04:51;;;;;;;14.90;4.75;;;;;;;;;;5044268;28;20048;-77
2023/08/07 14:07:21;;;;;;;8.40;2.42;;;;;;;;;;5061838;28;20048;-77
2023/08/07 14:09:52;;;;;;;7.93;2.25;;;;;;;;;;5061530;28;20063;-76
2023/08/07 14:12:22;;;;;;;10.07;2.67;;;;;;;;;;5060885;28;20055;-77
2023/08/07 14:14:52;;;;;;;9.05;2.72;;;;;;;;;;5062633;28;20052;-77
2023/08/07 14:17:22;;;;;;;15.27;3.40;;;;;;;;;;5061535;28;20048;-76
2023/08/07 14:19:54;;;;;;;11.07;3.30;;;;;;;;;;5059747;28;20930;-76
2023/08/07 14:22:24;;;;;;;11.10;3.28;;;;;;;;;;5061286;28;20072;-78
2023/08/07 14:24:54;;;;;;;12.27;3.97;;;;;;;;;;5059794;28;20048;-76
2023/08/07 14:27:24;;;;;;;9.00;3.17;;;;;;;;;;5061401;28;20404;-77
2023/08/07 14:29:54;;;;;;;12.02;3.50;;;;;;;;;;5061259;28;20083;-77
2023/08/07 14:32:25;;;;;;;10.50;3.47;;;;;;;;;;5060718;28;20041;-76
2023/08/07 14:34:56;;;;;;;13.25;3.63;;;;;;;;;;5062467;28;20431;-78
2023/08/07 14:37:26;;;;;;;10.15;3.40;;;;;;;;;;5064227;28;20036;-76
2023/08/07 14:39:56;;;;;;;9.93;3.25;;;;;;;;;;5065034;28;20056;-76
2023/08/07 14:42:28;;;;;;;11.52;2.97;;;;;;;;;;5064056;28;20419;-76
2023/08/07 14:44:59;;;;;;;11.75;3.33;;;;;;;;;;5062338;28;20064;-76
2023/08/07 14:47:29;;;;;;;14.10;3.17;;;;;;;;;;5064362;28;20059;-77
2023/08/07 14:49:59;;;;;;;11.20;2.92;;;;;;;;;;5065034;28;20499;-78
2023/08/07 14:52:30;;;;;;;13.40;3.10;;;;;;;;;;5065129;28;20052;-78
2023/08/07 14:55:01;;;;;;;8.98;3.30;;;;;;;;;;5064171;28;20052;-76
2023/08/07 14:57:32;;;;;;;16.17;3.20;;;;;;;;;;5062365;28;20055;-76
2023/08/07 15:00:05;;;;;;;11.20;3.33;;;;;;;;;;5064279;28;20047;-76
2023/08/07 15:02:36;;;;;;;10.13;3.20;;;;;;;;;;5064129;28;20055;-81
2023/08/07 15:05:07;;;;;;;7.00;2.42;;;;;;;;;;5064391;28;20055;-75